createdAt,value
2022-09-30T00:01:51.351Z,11.10
2022-09-30T00:04:21.302Z,11.40
2022-09-30T00:06:51.821Z,11.03
2022-09-30T00:09:21.653Z,10.80
2022-09-30T00:11:49.562Z,11.33
2022-09-30T00:14:20.451Z,11.73
2022-09-30T00:16:48.489Z,13.50
2022-09-30T00:19:16.442Z,11.40
2022-09-30T00:21:44.625Z,12.63
2022-09-30T00:24:14.010Z,12.20
2022-09-30T00:26:41.819Z,12.30
2022-09-30T00:29:11.044Z,12.57
2022-09-30T00:31:39.639Z,11.57
2022-09-30T00:34:11.389Z,11.93
2022-09-30T00:36:44.172Z,11.40
2022-09-30T00:39:16.125Z,10.80
2022-09-30T00:41:44.969Z,11.03
2022-09-30T00:44:55.489Z,11.27
2022-09-30T00:47:34.722Z,11.30
2022-09-30T00:50:05.983Z,12.20
2022-09-30T00:52:34.911Z,11.10
2022-09-30T00:55:10.548Z,11.50
2022-09-30T00:57:38.416Z,11.50
2022-09-30T01:00:07.715Z,11.80
2022-09-30T01:02:36.388Z,12.00
2022-09-30T01:05:04.678Z,11.60
2022-09-30T01:07:32.693Z,10.83
2022-09-30T01:10:01.997Z,12.07
2022-09-30T01:12:31.364Z,11.70
2022-09-30T01:15:00.836Z,11.40
2022-09-30T01:17:42.123Z,11.30
2022-09-30T01:20:36.823Z,12.47
2022-09-30T01:23:29.351Z,12.37
2022-09-30T01:26:24.791Z,12.13
2022-09-30T01:29:26.705Z,12.00
2022-09-30T01:32:02.534Z,11.63
2022-09-30T01:34:39.678Z,11.33
2022-09-30T01:37:15.643Z,12.13
2022-09-30T01:39:56.561Z,12.77
2022-09-30T01:42:29.248Z,11.90
2022-09-30T01:45:07.750Z,12.43
2022-09-30T01:47:44.410Z,12.20
2022-09-30T01:50:19.007Z,11.13
2022-09-30T01:52:54.291Z,12.50
2022-09-30T01:55:28.581Z,11.17
2022-09-30T01:58:02.780Z,11.40
2022-09-30T02:00:35.013Z,11.80
2022-09-30T02:03:10.386Z,12.17
2022-09-30T02:05:42.577Z,12.90
2022-09-30T02:08:16.722Z,13.17
2022-09-30T02:10:51.691Z,12.20
2022-09-30T02:13:26.543Z,13.40
2022-09-30T02:16:00.378Z,12.90
2022-09-30T02:18:37.002Z,13.87
2022-09-30T02:21:08.129Z,13.33
2022-09-30T02:23:41.825Z,14.80
2022-09-30T02:26:16.167Z,14.13
2022-09-30T02:28:48.613Z,12.20
2022-09-30T02:31:19.568Z,11.97
2022-09-30T02:33:54.302Z,12.63
2022-09-30T02:36:27.615Z,12.20
2022-09-30T02:39:01.916Z,12.33
2022-09-30T02:41:34.510Z,13.60
2022-09-30T02:44:03.691Z,13.13
2022-09-30T02:46:44.701Z,13.20
2022-09-30T02:49:22.397Z,12.37
2022-09-30T02:52:03.789Z,12.47
2022-09-30T02:54:36.145Z,13.00
2022-09-30T02:57:15.830Z,12.20
2022-09-30T02:59:43.826Z,12.17
2022-09-30T03:02:11.880Z,12.63
2022-09-30T03:04:43.704Z,12.50
2022-09-30T03:07:12.320Z,12.27
2022-09-30T03:09:40.640Z,11.97
2022-09-30T03:12:19.748Z,11.57
2022-09-30T03:15:21.107Z,12.37
2022-09-30T03:18:04.973Z,11.53
2022-09-30T03:20:47.012Z,13.27
2022-09-30T03:23:29.979Z,13.13
2022-09-30T03:26:04.335Z,13.97
2022-09-30T03:28:36.765Z,13.30
2022-09-30T03:31:13.260Z,13.57
2022-09-30T03:33:52.255Z,12.60
2022-09-30T03:36:29.453Z,12.10
2022-09-30T03:39:03.239Z,12.30
2022-09-30T03:41:36.606Z,12.23
2022-09-30T03:44:11.848Z,12.10
2022-09-30T03:46:44.467Z,13.13
2022-09-30T03:49:17.823Z,11.13
2022-09-30T03:51:50.772Z,11.47
2022-09-30T03:54:19.387Z,12.03
2022-09-30T03:56:48.464Z,12.17
2022-09-30T03:59:23.575Z,12.20
2022-09-30T04:01:51.756Z,12.50
2022-09-30T04:04:19.829Z,12.13
2022-09-30T04:06:48.977Z,12.50
2022-09-30T04:09:16.996Z,12.40
2022-09-30T04:11:44.918Z,11.90
2022-09-30T04:14:12.738Z,12.43
2022-09-30T04:16:40.684Z,11.60
2022-09-30T04:19:08.554Z,11.93
2022-09-30T04:21:36.430Z,11.43
2022-09-30T04:24:06.024Z,11.97
2022-09-30T04:26:33.930Z,11.53
2022-09-30T04:29:02.027Z,12.13
2022-09-30T04:31:29.996Z,11.27
2022-09-30T04:33:58.189Z,11.47
2022-09-30T04:36:26.073Z,12.20
2022-09-30T04:38:53.964Z,12.33
2022-09-30T04:41:23.486Z,11.90
2022-09-30T04:43:51.328Z,12.17
2022-09-30T04:46:22.541Z,12.77
2022-09-30T04:48:51.348Z,11.33
2022-09-30T04:51:21.027Z,12.13
2022-09-30T04:53:50.050Z,12.50
2022-09-30T04:56:18.272Z,11.77
2022-09-30T04:58:47.493Z,12.47
2022-09-30T05:01:17.207Z,12.73
2022-09-30T05:03:45.808Z,11.87
2022-09-30T05:06:14.513Z,11.90
2022-09-30T05:08:46.117Z,13.00
2022-09-30T05:11:17.475Z,13.03
2022-09-30T05:13:47.303Z,13.17
2022-09-30T05:16:16.201Z,14.53
2022-09-30T05:18:46.106Z,15.23
2022-09-30T05:21:14.475Z,15.77
2022-09-30T05:23:42.353Z,17.90
2022-09-30T05:26:12.543Z,15.37
2022-09-30T05:28:40.867Z,15.40
2022-09-30T05:31:12.217Z,14.60
2022-09-30T05:33:41.834Z,15.40
2022-09-30T05:36:14.234Z,15.97
2022-09-30T05:38:42.165Z,15.47
2022-09-30T05:41:11.912Z,14.93
2022-09-30T05:43:41.020Z,14.73
2022-09-30T05:46:10.251Z,14.37
2022-09-30T05:48:38.010Z,15.37
2022-09-30T05:51:06.095Z,14.70
2022-09-30T05:53:38.221Z,14.17
2022-09-30T05:56:07.403Z,13.50
2022-09-30T05:58:35.370Z,13.33
2022-09-30T06:01:13.172Z,13.33
2022-09-30T06:03:44.188Z,13.27
2022-09-30T06:06:12.991Z,12.60
2022-09-30T06:08:41.484Z,13.60
2022-09-30T06:11:13.024Z,15.00
2022-09-30T06:13:42.133Z,13.63
2022-09-30T06:16:11.992Z,13.97
2022-09-30T06:18:41.615Z,14.33
2022-09-30T06:21:13.689Z,14.40
2022-09-30T06:23:42.220Z,12.83
2022-09-30T06:26:13.445Z,13.13
2022-09-30T06:28:42.123Z,13.87
2022-09-30T06:31:10.181Z,14.40
2022-09-30T06:33:42.514Z,12.77
2022-09-30T06:36:11.983Z,12.63
2022-09-30T06:38:40.413Z,12.70
2022-09-30T06:41:09.544Z,13.23
2022-09-30T06:43:46.179Z,11.73
2022-09-30T06:46:29.857Z,13.53
2022-09-30T06:49:10.386Z,15.50
2022-09-30T06:51:42.153Z,11.80
2022-09-30T06:54:11.153Z,11.43
2022-09-30T06:56:39.042Z,11.10
2022-09-30T06:59:07.094Z,10.77
2022-09-30T07:01:35.089Z,11.33
2022-09-30T07:04:09.565Z,11.47
2022-09-30T07:06:39.031Z,10.80
2022-09-30T07:09:10.248Z,10.77
2022-09-30T07:11:38.987Z,10.47
2022-09-30T07:14:07.620Z,10.97
2022-09-30T07:16:35.590Z,10.37
2022-09-30T07:19:04.387Z,11.00
2022-09-30T07:21:32.797Z,11.90
2022-09-30T07:24:01.208Z,11.93
2022-09-30T07:26:31.142Z,11.10
2022-09-30T07:29:04.567Z,10.40
2022-09-30T07:31:34.623Z,10.93
2022-09-30T07:34:04.210Z,10.17
2022-09-30T07:36:33.897Z,10.00
2022-09-30T07:39:07.432Z,9.53
2022-09-30T07:41:40.340Z,9.93
2022-09-30T07:44:13.412Z,10.20
2022-09-30T07:46:43.445Z,10.57
2022-09-30T07:49:15.332Z,10.33
2022-09-30T07:51:47.449Z,10.13
2022-09-30T07:54:18.716Z,10.50
2022-09-30T07:57:09.209Z,10.10
2022-09-30T07:59:40.292Z,10.63
2022-09-30T08:02:14.133Z,10.53
2022-09-30T08:04:44.214Z,10.47
2022-09-30T08:07:14.550Z,10.00
2022-09-30T08:09:44.090Z,8.47
2022-09-30T08:12:16.178Z,8.40
2022-09-30T08:14:45.781Z,8.70
2022-09-30T08:17:15.161Z,8.67
2022-09-30T08:19:44.913Z,8.10
2022-09-30T08:22:14.358Z,7.20
2022-09-30T08:24:42.855Z,7.63
2022-09-30T08:27:12.618Z,7.13
2022-09-30T08:30:01.164Z,7.10
2022-09-30T08:32:32.043Z,6.07
2022-09-30T08:35:00.933Z,5.50
2022-09-30T08:37:29.271Z,5.23
2022-09-30T08:40:02.784Z,5.23
2022-09-30T08:42:51.803Z,5.87
2022-09-30T08:45:34.243Z,5.30
2022-09-30T08:50:55.219Z,6.07
2022-09-30T08:53:38.751Z,5.73
2022-09-30T08:56:08.591Z,5.93
2022-09-30T08:58:40.504Z,5.30
2022-09-30T09:01:20.439Z,8.87
2022-09-30T09:03:51.904Z,6.40
2022-09-30T09:06:32.995Z,5.90
2022-09-30T09:09:20.192Z,5.43
2022-09-30T09:12:02.811Z,5.73
2022-09-30T09:14:45.947Z,5.13
2022-09-30T09:17:29.973Z,5.43
2022-09-30T09:20:04.187Z,5.00
2022-09-30T09:22:34.473Z,5.07
2022-09-30T09:25:04.347Z,4.80
2022-09-30T09:27:45.069Z,4.70
2022-09-30T09:30:16.520Z,5.10
2022-09-30T09:32:52.221Z,4.93
2022-09-30T09:35:35.212Z,5.50
2022-09-30T09:38:28.535Z,5.30
2022-09-30T09:41:09.244Z,6.60
2022-09-30T09:43:51.045Z,6.07
2022-09-30T09:46:25.637Z,6.10
2022-09-30T09:49:29.136Z,5.70
2022-09-30T09:52:15.580Z,5.43
2022-09-30T09:54:45.466Z,6.13
2022-09-30T09:57:17.849Z,6.00
2022-09-30T09:59:58.438Z,6.57
2022-09-30T10:06:15.742Z,6.20
2022-09-30T10:08:55.905Z,5.83
2022-09-30T10:11:26.626Z,5.80
2022-09-30T10:13:58.510Z,6.57
2022-09-30T10:16:33.059Z,6.27
2022-09-30T10:19:05.981Z,5.30
2022-09-30T10:21:38.524Z,6.00
2022-09-30T10:24:21.414Z,5.37
2022-09-30T10:26:51.069Z,5.70
2022-09-30T10:29:31.982Z,5.53
2022-09-30T10:32:01.886Z,6.13
2022-09-30T10:34:34.605Z,5.63
2022-09-30T10:37:16.934Z,5.30
2022-09-30T10:39:53.242Z,6.73
2022-09-30T10:42:26.638Z,5.30
2022-09-30T10:44:58.682Z,5.33
2022-09-30T10:47:31.405Z,4.70
2022-09-30T10:50:07.776Z,4.30
2022-09-30T10:52:45.347Z,5.63
2022-09-30T10:55:29.595Z,4.87
2022-09-30T10:58:05.913Z,5.13
2022-09-30T11:00:34.866Z,4.30
2022-09-30T11:03:09.233Z,4.37
2022-09-30T11:05:41.361Z,5.00
2022-09-30T11:08:19.440Z,3.97
2022-09-30T11:10:58.171Z,3.77
2022-09-30T11:13:31.652Z,3.83
2022-09-30T11:16:06.647Z,3.67
2022-09-30T11:18:41.041Z,3.67
2022-09-30T11:21:17.423Z,3.43
2022-09-30T11:23:54.281Z,3.80
2022-09-30T11:26:32.290Z,3.57
2022-09-30T11:29:17.024Z,3.77
2022-09-30T11:31:53.063Z,3.90
2022-09-30T11:34:41.729Z,3.40
2022-09-30T11:37:21.104Z,2.67
2022-09-30T11:40:18.720Z,2.60
2022-09-30T11:42:56.891Z,2.50
2022-09-30T11:45:35.110Z,2.80
2022-09-30T11:48:19.671Z,4.03
2022-09-30T11:50:58.959Z,2.63
2022-09-30T11:53:39.506Z,2.67
2022-09-30T11:56:20.369Z,5.10
2022-09-30T11:58:51.815Z,2.60
2022-09-30T12:01:29.125Z,2.20
2022-09-30T12:04:05.576Z,2.20
2022-09-30T12:06:39.382Z,2.13
2022-09-30T12:09:16.013Z,2.27
2022-09-30T12:11:51.858Z,2.03
2022-09-30T12:14:37.583Z,2.37
2022-09-30T12:17:13.627Z,1.70
2022-09-30T12:19:48.557Z,1.70
2022-09-30T12:22:21.880Z,1.93
2022-09-30T12:24:49.824Z,1.93
2022-09-30T12:27:26.424Z,1.80
2022-09-30T12:30:20.376Z,2.20
2022-09-30T12:33:26.456Z,2.00
2022-09-30T12:36:24.060Z,1.90
2022-09-30T12:39:15.597Z,1.80
2022-09-30T12:42:01.157Z,1.90
2022-09-30T12:45:00.634Z,2.30
2022-09-30T12:47:36.564Z,1.77
2022-09-30T12:50:10.151Z,1.80
2022-09-30T12:52:39.367Z,1.70
2022-09-30T12:55:13.991Z,1.30
2022-09-30T12:57:44.560Z,1.37
2022-09-30T13:00:19.659Z,1.50
2022-09-30T13:02:55.345Z,1.50
2022-09-30T13:05:51.869Z,1.53
2022-09-30T13:08:47.498Z,1.60
2022-09-30T13:11:37.854Z,1.40
2022-09-30T13:14:26.510Z,1.60
2022-09-30T13:17:23.753Z,1.53
2022-09-30T13:19:53.656Z,1.20
2022-09-30T13:23:06.246Z,1.40
2022-09-30T13:25:59.972Z,1.50
2022-09-30T13:28:32.425Z,1.43
2022-09-30T13:31:33.920Z,1.60
2022-09-30T13:34:23.101Z,1.40
2022-09-30T13:37:00.356Z,1.20
2022-09-30T13:39:31.803Z,1.30
2022-09-30T13:42:24.693Z,1.40
2022-09-30T13:47:53.105Z,1.30
2022-09-30T13:50:28.232Z,1.13
2022-09-30T13:53:01.036Z,1.20
2022-09-30T13:55:36.656Z,1.40
2022-09-30T13:58:25.469Z,1.40
2022-09-30T14:00:59.532Z,1.10
2022-09-30T14:03:47.501Z,1.37
2022-09-30T14:06:28.481Z,1.10
2022-09-30T14:09:12.685Z,1.20
2022-09-30T14:12:09.466Z,1.40
2022-09-30T14:15:24.678Z,1.33
2022-09-30T14:18:37.019Z,0.93
2022-09-30T14:21:21.606Z,1.10
2022-09-30T14:24:00.530Z,1.00
2022-09-30T14:27:16.919Z,0.90
2022-09-30T14:29:53.772Z,0.97
2022-09-30T14:32:29.400Z,1.10
2022-09-30T14:34:59.536Z,1.33
2022-09-30T14:37:35.447Z,1.20
2022-09-30T14:40:13.677Z,1.20
2022-09-30T14:42:44.552Z,1.30
2022-09-30T14:45:21.671Z,1.10
2022-09-30T14:47:52.763Z,1.10
2022-09-30T14:50:26.220Z,1.00
2022-09-30T14:52:56.984Z,1.13
2022-09-30T14:55:30.726Z,1.67
2022-09-30T14:58:22.953Z,1.40
2022-09-30T15:00:58.039Z,1.10
2022-09-30T15:03:27.094Z,1.53
2022-09-30T15:05:55.536Z,1.30
2022-09-30T15:08:24.348Z,1.57
2022-09-30T15:10:56.566Z,1.60
2022-09-30T15:13:27.912Z,1.30
2022-09-30T15:15:56.281Z,1.23
2022-09-30T15:18:30.479Z,1.40
2022-09-30T15:21:00.789Z,1.23
2022-09-30T15:23:31.829Z,1.20
2022-09-30T15:26:02.218Z,1.35
2022-09-30T15:28:30.502Z,1.40
2022-09-30T15:30:59.851Z,1.20
2022-09-30T15:33:31.719Z,1.50
2022-09-30T15:36:05.709Z,1.05
2022-09-30T15:38:35.867Z,1.10
2022-09-30T15:41:08.507Z,1.60
2022-09-30T15:43:40.675Z,1.50
2022-09-30T15:46:21.399Z,1.30
2022-09-30T15:48:50.051Z,1.70
2022-09-30T15:51:30.202Z,1.50
2022-09-30T15:54:00.347Z,1.30
2022-09-30T15:56:36.083Z,1.60
2022-09-30T15:59:06.725Z,1.10
2022-09-30T16:01:39.978Z,1.30
2022-09-30T16:04:15.145Z,1.90
2022-09-30T16:06:50.478Z,1.47
2022-09-30T16:09:37.359Z,1.20
2022-09-30T16:12:09.930Z,1.30
2022-09-30T16:14:45.195Z,1.43
2022-09-30T16:17:19.430Z,1.07
2022-09-30T16:19:53.143Z,1.37
2022-09-30T16:22:36.549Z,1.60
2022-09-30T16:25:16.716Z,1.43
2022-09-30T16:27:46.103Z,1.43
2022-09-30T16:30:15.504Z,1.43
2022-09-30T16:32:47.934Z,1.80
2022-09-30T16:35:19.220Z,1.90
2022-09-30T16:37:48.350Z,1.83
2022-09-30T16:40:22.971Z,2.10
2022-09-30T16:42:54.715Z,2.00
2022-09-30T16:45:23.936Z,1.90
2022-09-30T16:47:51.815Z,1.90
2022-09-30T16:50:26.654Z,1.93
2022-09-30T16:52:54.549Z,2.17
2022-09-30T16:55:22.532Z,2.30
2022-09-30T16:57:50.363Z,2.30
2022-09-30T17:00:19.814Z,1.77
2022-09-30T17:02:48.909Z,1.83
2022-09-30T17:05:19.570Z,1.93
2022-09-30T17:07:48.463Z,1.77
2022-09-30T17:10:21.263Z,2.00
2022-09-30T17:12:50.179Z,2.20
2022-09-30T17:15:19.975Z,1.87
2022-09-30T17:17:48.837Z,2.47
2022-09-30T17:20:16.948Z,2.37
2022-09-30T17:22:46.404Z,2.50
2022-09-30T17:25:14.896Z,2.80
2022-09-30T17:27:43.208Z,2.60
2022-09-30T17:30:11.981Z,1.93
2022-09-30T17:32:42.304Z,2.53
2022-09-30T17:35:10.546Z,2.30
2022-09-30T17:37:41.318Z,2.47
2022-09-30T17:40:29.566Z,2.20
2022-09-30T17:43:11.167Z,1.90
2022-09-30T17:45:40.812Z,2.47
2022-09-30T17:48:10.690Z,3.03
2022-09-30T17:50:39.648Z,2.43
2022-09-30T17:53:07.568Z,2.70
2022-09-30T17:55:36.104Z,3.50
2022-09-30T17:58:03.951Z,3.73
2022-09-30T18:00:32.314Z,3.87
2022-09-30T18:03:00.483Z,3.83
2022-09-30T18:05:30.004Z,4.40
2022-09-30T18:07:58.226Z,4.67
2022-09-30T18:10:28.403Z,4.53
2022-09-30T18:12:56.611Z,5.90
2022-09-30T18:15:24.469Z,5.53
2022-09-30T18:17:52.393Z,6.67
2022-09-30T18:20:23.340Z,6.10
2022-09-30T18:22:54.671Z,6.17
2022-09-30T18:25:23.014Z,6.93
2022-09-30T18:27:53.231Z,7.03
2022-09-30T18:30:21.753Z,7.97
2022-09-30T18:32:50.485Z,4.03
2022-09-30T18:35:20.349Z,5.43
2022-09-30T18:37:49.695Z,4.60
2022-09-30T18:40:19.848Z,4.87
2022-09-30T18:42:48.639Z,4.47
2022-09-30T18:45:16.908Z,4.63
2022-09-30T18:47:45.760Z,5.23
2022-09-30T18:50:17.856Z,6.90
2022-09-30T18:52:45.702Z,5.07
2022-09-30T18:55:13.533Z,4.87
2022-09-30T18:57:43.127Z,5.03
2022-09-30T19:00:12.262Z,4.63
2022-09-30T19:02:41.015Z,4.93
2022-09-30T19:05:09.528Z,4.60
2022-09-30T19:07:38.533Z,4.83
2022-09-30T19:10:07.404Z,5.10
2022-09-30T19:12:35.764Z,5.33
2022-09-30T19:15:05.852Z,5.33
2022-09-30T19:17:33.912Z,7.47
2022-09-30T19:20:02.015Z,18.00
2022-09-30T19:22:30.022Z,24.23
2022-09-30T19:24:57.812Z,20.70
2022-09-30T19:27:26.229Z,18.03
2022-09-30T19:29:59.137Z,16.10
2022-09-30T19:32:34.336Z,8.83
2022-09-30T19:35:06.403Z,11.90
2022-09-30T19:37:34.994Z,9.43
2022-09-30T19:40:15.994Z,11.90
2022-09-30T19:42:49.045Z,11.17
2022-09-30T19:45:18.838Z,11.50
2022-09-30T19:47:49.942Z,11.83
2022-09-30T19:50:17.862Z,11.83
2022-09-30T19:52:55.962Z,12.23
2022-09-30T19:55:25.087Z,11.93
2022-09-30T19:57:52.854Z,8.80
2022-09-30T20:00:20.591Z,11.00
2022-09-30T20:02:50.522Z,10.03
2022-09-30T20:05:18.628Z,8.53
2022-09-30T20:07:46.419Z,7.80
2022-09-30T20:10:14.386Z,6.77
2022-09-30T20:12:43.365Z,6.83
2022-09-30T20:15:29.241Z,6.07
2022-09-30T20:17:58.416Z,6.57
2022-09-30T20:20:42.731Z,5.27
2022-09-30T20:23:10.504Z,4.53
2022-09-30T20:25:38.523Z,4.77
2022-09-30T20:28:07.114Z,4.70
2022-09-30T20:30:38.703Z,4.43
2022-09-30T20:33:08.217Z,4.80
2022-09-30T20:35:36.801Z,4.20
2022-09-30T20:38:05.195Z,4.80
2022-09-30T20:40:34.827Z,4.93
2022-09-30T20:43:04.029Z,5.00
2022-09-30T20:45:31.822Z,6.63
2022-09-30T20:47:59.715Z,6.23
2022-09-30T20:50:38.378Z,5.63
2022-09-30T20:53:09.273Z,6.03
2022-09-30T20:55:39.270Z,6.00
2022-09-30T20:58:09.212Z,6.17
2022-09-30T21:00:39.622Z,6.20
2022-09-30T21:03:09.019Z,6.63
2022-09-30T21:05:38.654Z,5.80
2022-09-30T21:08:07.233Z,6.20
2022-09-30T21:10:36.850Z,5.70
2022-09-30T21:13:10.389Z,6.10
2022-09-30T21:15:38.461Z,6.40
2022-09-30T21:18:06.794Z,6.50
2022-09-30T21:20:34.856Z,6.03
2022-09-30T21:23:04.188Z,6.30
2022-09-30T21:25:32.428Z,7.33
2022-09-30T21:28:00.372Z,6.17
2022-09-30T21:30:28.926Z,6.13
2022-09-30T21:32:56.668Z,6.30
2022-09-30T21:35:24.473Z,5.63
2022-09-30T21:37:52.183Z,6.60
2022-09-30T21:40:21.380Z,6.53
2022-09-30T21:42:49.124Z,6.27
2022-09-30T21:45:18.264Z,6.37
2022-09-30T21:47:46.080Z,5.80
2022-09-30T21:50:13.893Z,6.23
2022-09-30T21:52:42.177Z,6.47
2022-09-30T21:55:11.709Z,6.07
2022-09-30T21:57:40.798Z,6.67
2022-09-30T22:00:09.691Z,6.37
2022-09-30T22:02:37.407Z,5.93
2022-09-30T22:05:06.126Z,6.80
2022-09-30T22:07:33.929Z,6.63
2022-09-30T22:10:01.814Z,6.00
2022-09-30T22:12:33.540Z,6.73
2022-09-30T22:15:02.692Z,6.83
2022-09-30T22:17:30.482Z,7.17
2022-09-30T22:19:58.330Z,6.67
2022-09-30T22:22:27.433Z,6.80
2022-09-30T22:24:56.954Z,6.90
2022-09-30T22:27:24.837Z,5.90
2022-09-30T22:29:52.601Z,6.50
2022-09-30T22:32:21.763Z,6.70
2022-09-30T22:35:07.344Z,6.60
2022-09-30T22:37:53.776Z,6.17
2022-09-30T22:40:23.741Z,6.50
2022-09-30T22:42:53.012Z,6.23
2022-09-30T22:45:20.819Z,7.00
2022-09-30T22:47:50.009Z,6.83
2022-09-30T22:50:19.584Z,7.10
2022-09-30T22:52:48.407Z,7.20
2022-09-30T22:55:16.459Z,6.67
2022-09-30T22:57:44.265Z,6.70
2022-09-30T23:00:13.324Z,7.13
2022-09-30T23:02:41.127Z,7.30
2022-09-30T23:05:10.340Z,8.57
2022-09-30T23:07:38.194Z,7.80
2022-09-30T23:10:07.454Z,7.37
2022-09-30T23:12:35.398Z,9.00
2022-09-30T23:15:03.217Z,8.63
2022-09-30T23:17:35.629Z,9.20
2022-09-30T23:20:03.397Z,8.40
2022-09-30T23:22:32.602Z,9.67
2022-09-30T23:25:02.027Z,9.77
2022-09-30T23:27:30.153Z,11.13
2022-09-30T23:29:57.882Z,10.40
2022-09-30T23:32:25.636Z,11.27
2022-09-30T23:34:53.777Z,10.73
2022-09-30T23:37:21.692Z,10.90
2022-09-30T23:39:50.811Z,10.63
2022-09-30T23:42:18.822Z,11.27
2022-09-30T23:44:46.566Z,11.73
2022-09-30T23:47:23.012Z,11.23
2022-09-30T23:49:50.870Z,11.77
2022-09-30T23:52:18.803Z,11.57
2022-09-30T23:54:46.812Z,11.40
2022-09-30T23:57:15.901Z,11.77
2022-09-30T23:59:43.636Z,12.60
